NCAR-RAP Real-Time Weather Data

Output produced by METARs form (23 January 2018  15:45 UTC)
found at http://weather.rap.ucar.edu/surface/
 
RJSI 231000Z VRB02KT 9999 -SHSN FEW020 SCT030 M04/M06 Q1002
RJSI 230900Z 26003KT 190V320 9999 FEW040 M02/M06 Q1001
RJSI 230800Z VRB05KT 9999 FEW015 SCT030 BKN070 M00/M04 Q1000
RJSI 230700Z 22007KT 160V260 8000 -SHSN FEW005 SCT020 BKN040 01/M01 Q0999
RJSI 230630Z VRB03KT 4000 R20/0900VP2000U -SHSN FEW003 BKN010 BKN020 00/00 Q0999 RMK 1ST003 5CU010 6CU020 A2950 P/RR
RJSI 230626Z 23006KT 150V280 1200 R20/0900V1600N -SHSN VV008 00/00 Q0999 RMK A2950 P/RR
RJSI 230620Z 22007KT 180V270 0800 R20/0900VP2000D SHSN VV006 00/00 Q0999 RMK A2951 P/RR
RJSI 230614Z 20008KT 0800 R20/1300VP2000D SHSN VV006 00/00 Q0998 RMK A2950
RJSI 230605Z 19011KT 1200 R20/1100VP2000U -SHSN VV008 00/00 Q0998 RMK A2948
RJSI 230600Z 18012KT 1000 R20/0800V2000U -SHSN VV006 00/00 Q0997
RJSI 230539Z 18014KT 1000 R20/P2000N -SHSN VV006 00/M00 Q0998 RMK A2947
RJSI 230529Z 17015KT 2000 -SHSN FEW003 BKN010 BKN015 00/M00 Q0997 RMK 1ST003 5CU010 6CU015 A2946
RJSI 230522Z 17014KT 1200 R20/1000VP2000U -SHSN VV008 01/00 Q0997 RMK A2945
RJSI 230517Z 16013KT 1000 R20/0750VP2000U -SHSN VV006 00/00 Q0997 RMK A2944
RJSI 230512Z 17012KT 0800 R20/0550V1100U SHSN VV006 00/00 Q0997 RMK A2945
RJSI 230502Z 21010KT 0500 R20/0600V0900N SHSN VV003 00/M00 Q0998 RMK A2947
RJSI 230500Z 21010KT 0500 R20/0800N SHSN VV003 00/M00 Q0998
RJSI 230437Z 20010KT 0500 R20/0500V1100U SHSN VV003 00/M00 Q0997 RMK A2946
RJSI 230429Z 19014KT 0500 R20/0375V2000D SHSN VV003 00/M00 Q0997 RMK A2946
RJSI 230426Z 19015KT 0500 R20/0375V2000D SHSN VV003 00/M00 Q0997 RMK A2946
RJSI 230424Z 19014KT 0800 R20/0700V2000D SHSN VV006 00/M00 Q0997 RMK A2946
RJSI 230420Z 19013KT 1200 R20/0900V2000U -SHSN VV008 00/M00 Q0997 RMK A2946
RJSI 230415Z 19013KT 1200 R20/0800V1500U -SHSN VV008 00/M00 Q0997 RMK A2947
RJSI 230412Z 18013KT 0800 R20/0800V1200N SHSN VV006 M00/M00 Q0997 RMK A2946
RJSI 230403Z 18012KT 0800 R20/1000VP2000D SHSN VV006 M00/M01 Q0997 RMK A2945
RJSI 230400Z 19011KT 1000 R20/1100VP2000D -SHSN VV006 M00/M01 Q0997
RJSI 230344Z 19010KT 0800 R20/0900N SHSN VV006 M00/M01 Q0997 RMK A2946 P/FR
RJSI 230331Z 16007KT 0800 R20/0800V1300U SHSN VV006 M01/M01 Q0997 RMK A2946 P/FR
RJSI 230328Z 17007KT 140V200 1000 R20/0650V1000N -SHSN VV006 M01/M01 Q0997 RMK A2946 P/FR
RJSI 230318Z 19006KT 0800 R20/0650V1200D SHSN VV006 M01/M02 Q0998 RMK A2948
RJSI 230311Z 19006KT 0800 R20/0750V1200N SHSN VV006 M01/M02 Q0998 RMK A2949
RJSI 230308Z 19006KT 0800 R20/0550V1000U SHSN VV006 M01/M02 Q0998 RMK A2949
RJSI 230300Z 20005KT 0800 R20/0550V0800D SHSN VV006 M02/M02 Q0998
RJSI 230236Z 22005KT 0800 R20/0900VP2000D SHSN VV006 M01/M03 Q0999 RMK A2952
RJSI 230228Z 22004KT 180V250 2000 R20/2000N -SHSN FEW005 SCT020 BKN030 M01/M03 Q0999 RMK 1ST005 3CU020 7CU030 A2951
RJSI 230221Z 22005KT 190V250 3000 -SHSN FEW005 SCT030 BKN040 M01/M03 Q0999 RMK 1ST005 3CU030 7CU040 A2952
RJSI 230200Z 22003KT 190V260 9999 FEW005 BKN045 BKN090 M01/M03 Q1000
RJSI 230100Z 17003KT 8000 FEW003 SCT030 BKN060 M03/M04 Q1002
RJSI 230000Z 11003KT 060V150 5000 BR FEW003 SCT030 BKN060 M04/M05 Q1003
RJSI 222300Z VRB01KT 3000 BR FEW003 SCT060 BKN/// M05/M06 Q1004
RJSI 222240Z VRB01KT 3000 BR FEW002 SCT060 BKN/// M05/M06 Q1004 RMK 1ST002 3SC060 A2966
RJSI 221000Z 34004KT 1600 -SN FEW008 BKN015 BKN020 M04/M05 Q1017
RJSI 220900Z 19003KT 1600 -SN FEW008 BKN015 BKN020 M03/M05 Q1018
RJSI 220839Z 19005KT 130V250 3000 -SN FEW008 BKN020 BKN030 M03/M06 Q1018 RMK 1ST008 5SC020 7SC030 A3008
RJSI 220829Z VRB02KT 4000 -SN FEW008 SCT020 BKN030 M02/M09 Q1018 RMK 1ST008 3SC020 6SC030 A3007
RJSI 220800Z VRB01KT 9999 -SN FEW008 SCT040 BKN060 M02/M10 Q1017
RJSI 220700Z 12002KT 9999 FEW030 SCT070 BKN090 M02/M10 Q1018
RJSI 220600Z VRB01KT 9999 FEW030 SCT080 BKN100 M02/M12 Q1017
RJSI 220500Z VRB01KT CAVOK M02/M12 Q1018
RJSI 220400Z VRB03KT CAVOK M01/M13 Q1020
RJSI 220300Z VRB01KT CAVOK M02/M12 Q1021
RJSI 220200Z VRB01KT CAVOK M03/M10 Q1022
RJSI 220100Z VRB01KT CAVOK M04/M11 Q1023
RJSI 220000Z VRB01KT CAVOK M05/M10 Q1024
RJSI 212300Z 00000KT CAVOK M07/M10 Q1023
RJSI 212240Z VRB01KT CAVOK M08/M11 Q1023 RMK A3022
RJSI 211000Z 29011G29KT 260V330 9999 -SHSN FEW010 SCT030 M02/M09 Q1019
RJSI 210900Z VRB02KT 9999 FEW010 SCT040 M01/M08 Q1018
RJSI 210800Z 29006KT 200V350 9999 VCSH FEW010 SCT040 M01/M08 Q1017
RJSI 210700Z 27009KT 230V300 9999 -SHSN FEW008 SCT015 BKN030 01/M06 Q1016
RJSI 210600Z 03004KT 320V070 9999 -SHSN FEW004 SCT009 BKN030 01/M01 Q1015
RJSI 210500Z 06005KT 6000 -SHSN FEW003 SCT015 BKN020 00/M01 Q1014
RJSI 210400Z 18005KT 8000 -SHSN FEW010 SCT015 BKN020 01/M02 Q1013